createdAt,value
2018-12-26T00:00:48.414Z,6.96
2018-12-26T00:03:52.281Z,7.01
2018-12-26T00:06:56.191Z,6.98
2018-12-26T00:10:00.049Z,6.99
2018-12-26T00:13:04.039Z,6.96
2018-12-26T00:16:07.958Z,6.90
2018-12-26T00:19:12.418Z,6.97
2018-12-26T00:22:18.248Z,7.09
2018-12-26T00:25:24.190Z,7.12
2018-12-26T00:28:31.055Z,7.12
2018-12-26T00:31:34.903Z,7.08
2018-12-26T00:34:38.820Z,7.10
2018-12-26T00:37:42.679Z,7.13
2018-12-26T00:40:46.518Z,7.09
2018-12-26T00:43:50.369Z,7.08
2018-12-26T00:46:54.213Z,7.08
2018-12-26T00:49:58.047Z,7.08
2018-12-26T00:53:01.924Z,7.12
2018-12-26T00:56:10.489Z,7.10
2018-12-26T00:59:11.310Z,7.17
2018-12-26T01:02:15.494Z,7.14
2018-12-26T01:05:19.422Z,7.18
2018-12-26T01:08:23.369Z,7.31
2018-12-26T01:11:27.208Z,7.24
2018-12-26T01:14:33.070Z,7.24
2018-12-26T01:17:36.714Z,7.28
2018-12-26T01:20:40.584Z,7.31
2018-12-26T01:23:46.615Z,7.28
2018-12-26T01:26:50.546Z,7.25
2018-12-26T01:29:54.387Z,7.34
2018-12-26T01:32:58.233Z,7.34
2018-12-26T01:36:02.098Z,7.34
2018-12-26T01:39:07.225Z,7.34
2018-12-26T01:42:11.082Z,7.35
2018-12-26T01:45:15.027Z,7.35
2018-12-26T01:48:18.899Z,7.35
2018-12-26T01:51:22.758Z,7.38
2018-12-26T01:54:26.620Z,7.34
2018-12-26T01:57:30.459Z,7.34
2018-12-26T02:00:34.384Z,7.32
2018-12-26T02:03:38.221Z,7.31
2018-12-26T02:06:42.156Z,7.28
2018-12-26T02:09:46.076Z,7.29
2018-12-26T02:12:50.529Z,7.28
2018-12-26T02:15:54.399Z,7.28
2018-12-26T02:18:58.258Z,7.26
2018-12-26T02:22:02.678Z,7.22
2018-12-26T02:25:07.001Z,7.20
2018-12-26T02:28:10.842Z,7.21
2018-12-26T02:31:14.762Z,7.16
2018-12-26T02:34:18.623Z,7.16
2018-12-26T02:37:22.476Z,7.09
2018-12-26T02:40:26.343Z,7.07
2018-12-26T02:43:30.188Z,7.07
2018-12-26T02:46:34.138Z,6.98
2018-12-26T02:49:38.072Z,6.93
2018-12-26T02:52:41.990Z,6.86
2018-12-26T02:55:46.053Z,6.86
2018-12-26T02:58:50.067Z,6.85
2018-12-26T03:01:53.978Z,6.83
2018-12-26T03:04:57.918Z,6.84
2018-12-26T03:08:01.762Z,6.89
2018-12-26T03:11:05.607Z,6.82
2018-12-26T03:14:09.563Z,6.89
2018-12-26T03:17:13.453Z,6.85
2018-12-26T03:20:17.325Z,6.82
2018-12-26T03:23:21.167Z,6.78
2018-12-26T03:26:25.007Z,6.78
2018-12-26T03:29:28.898Z,6.75
2018-12-26T03:32:32.814Z,6.81
2018-12-26T03:35:36.646Z,6.84
2018-12-26T03:38:40.579Z,6.85
2018-12-26T03:41:44.489Z,6.87
2018-12-26T03:44:51.712Z,6.88
2018-12-26T03:47:56.921Z,6.90
2018-12-26T03:51:00.831Z,6.96
2018-12-26T03:54:04.843Z,6.95
2018-12-26T03:57:09.069Z,6.94
2018-12-26T04:00:13.298Z,6.95
2018-12-26T04:03:17.329Z,6.98
2018-12-26T04:06:21.252Z,6.95
2018-12-26T04:09:25.598Z,7.03
2018-12-26T04:12:29.545Z,7.02
2018-12-26T04:15:35.265Z,7.11
2018-12-26T04:18:39.372Z,7.11
2018-12-26T04:21:43.453Z,7.16
2018-12-26T04:24:48.416Z,7.23
2018-12-26T04:27:52.290Z,7.29
2018-12-26T04:30:57.682Z,7.30
2018-12-26T04:34:01.653Z,7.35
2018-12-26T04:37:05.499Z,7.36
2018-12-26T04:40:09.409Z,7.39
2018-12-26T04:43:13.263Z,7.63
2018-12-26T04:46:17.126Z,7.47
2018-12-26T04:49:20.979Z,7.46
2018-12-26T04:52:24.819Z,7.47
2018-12-26T04:55:28.673Z,7.51
2018-12-26T04:58:32.521Z,7.55
2018-12-26T05:01:36.397Z,7.57
2018-12-26T05:04:40.561Z,7.59
2018-12-26T05:07:44.406Z,7.64
2018-12-26T05:10:48.381Z,7.65
2018-12-26T05:13:52.306Z,7.70
2018-12-26T05:16:56.255Z,7.73
2018-12-26T05:20:00.195Z,7.80
2018-12-26T05:23:04.198Z,7.78
2018-12-26T05:26:08.129Z,7.78
2018-12-26T05:29:11.993Z,7.77
2018-12-26T05:32:15.928Z,7.90
2018-12-26T05:35:19.917Z,7.75
2018-12-26T05:38:23.873Z,7.77
2018-12-26T05:41:27.715Z,7.72
2018-12-26T05:44:31.575Z,7.73
2018-12-26T05:47:35.440Z,7.71
2018-12-26T05:50:39.304Z,7.67
2018-12-26T05:53:43.168Z,7.72
2018-12-26T05:56:47.118Z,7.67
2018-12-26T05:59:50.970Z,7.65
2018-12-26T06:02:54.820Z,7.62
2018-12-26T06:05:58.897Z,7.57
2018-12-26T06:09:02.949Z,7.57
2018-12-26T06:12:06.781Z,7.57
2018-12-26T06:15:12.990Z,7.53
2018-12-26T06:18:16.856Z,7.48
2018-12-26T06:21:20.739Z,7.54
2018-12-26T06:24:24.982Z,7.52
2018-12-26T06:27:30.230Z,7.54
2018-12-26T06:30:34.100Z,7.59
2018-12-26T06:33:37.947Z,7.59
2018-12-26T06:36:41.802Z,7.59
2018-12-26T06:39:45.730Z,7.64
2018-12-26T06:42:49.593Z,7.56
2018-12-26T06:45:53.437Z,7.57
2018-12-26T06:48:57.315Z,7.63
2018-12-26T06:52:01.159Z,7.71
2018-12-26T06:55:05.173Z,7.71
2018-12-26T06:58:09.015Z,7.75
2018-12-26T07:01:12.857Z,7.83
2018-12-26T07:04:16.716Z,7.87
2018-12-26T07:07:20.563Z,7.86
2018-12-26T07:10:25.064Z,7.91
2018-12-26T07:13:28.912Z,7.92
2018-12-26T07:16:34.839Z,7.94
2018-12-26T07:19:38.691Z,7.98
2018-12-26T07:22:42.544Z,7.98
2018-12-26T07:25:46.385Z,7.99
2018-12-26T07:28:50.335Z,7.94
2018-12-26T07:31:54.189Z,7.91
2018-12-26T07:34:58.033Z,7.91
2018-12-26T07:38:01.950Z,7.89
2018-12-26T07:41:05.810Z,7.86
2018-12-26T07:44:09.650Z,7.84
2018-12-26T07:47:13.489Z,7.83
2018-12-26T07:50:17.347Z,7.84
2018-12-26T07:53:21.266Z,7.84
2018-12-26T07:56:25.099Z,7.85
2018-12-26T07:59:37.526Z,7.82
2018-12-26T08:02:37.081Z,7.86
2018-12-26T08:05:40.935Z,7.84
2018-12-26T08:08:44.827Z,7.84
2018-12-26T08:11:48.747Z,7.86
2018-12-26T08:14:52.712Z,7.83
2018-12-26T08:17:56.596Z,7.82
2018-12-26T08:21:00.451Z,7.78
2018-12-26T08:24:04.423Z,7.78
2018-12-26T08:27:08.255Z,7.89
2018-12-26T08:30:12.100Z,7.87
2018-12-26T08:33:17.652Z,7.82
2018-12-26T08:36:21.578Z,7.80
2018-12-26T08:39:25.561Z,7.84
2018-12-26T08:42:29.476Z,7.83
2018-12-26T08:45:33.322Z,7.90
2018-12-26T08:48:37.339Z,7.89
2018-12-26T08:51:43.298Z,7.84
2018-12-26T08:54:47.178Z,7.82
2018-12-26T08:57:51.038Z,7.77
2018-12-26T09:00:54.972Z,7.80
2018-12-26T09:03:58.828Z,7.83
2018-12-26T09:07:02.716Z,7.77
2018-12-26T09:10:07.490Z,7.76
2018-12-26T09:13:11.380Z,7.72
2018-12-26T09:16:17.258Z,7.68
2018-12-26T09:19:21.155Z,7.66
2018-12-26T09:22:25.022Z,7.66
2018-12-26T09:25:29.635Z,7.65
2018-12-26T09:28:33.467Z,7.68
2018-12-26T09:31:37.314Z,7.67
2018-12-26T09:34:41.161Z,7.62
2018-12-26T09:37:45.026Z,7.63
2018-12-26T09:40:48.975Z,7.62
2018-12-26T09:43:55.963Z,7.56
2018-12-26T09:46:59.912Z,7.58
2018-12-26T09:50:04.014Z,7.59
2018-12-26T09:53:07.875Z,7.59
2018-12-26T09:56:11.733Z,7.62
2018-12-26T09:59:15.652Z,7.57
2018-12-26T10:02:19.591Z,7.56
2018-12-26T10:05:26.985Z,7.55
2018-12-26T10:08:30.830Z,7.55
2018-12-26T10:11:34.843Z,7.55
2018-12-26T10:14:38.755Z,7.52
2018-12-26T10:17:42.595Z,7.54
2018-12-26T10:20:46.437Z,7.55
2018-12-26T10:23:50.281Z,7.53
2018-12-26T10:26:54.211Z,7.50
2018-12-26T10:29:58.154Z,7.48
2018-12-26T10:33:01.994Z,7.48
2018-12-26T10:36:05.854Z,7.51
2018-12-26T10:39:09.793Z,7.48
2018-12-26T10:42:13.708Z,7.46
2018-12-26T10:45:17.652Z,7.46
2018-12-26T10:48:23.075Z,7.44
2018-12-26T10:51:27.032Z,7.49
2018-12-26T10:54:30.969Z,7.56
2018-12-26T10:57:35.087Z,7.46
2018-12-26T11:00:39.061Z,7.44
2018-12-26T11:03:42.860Z,7.41
2018-12-26T11:06:46.702Z,7.42
2018-12-26T11:09:50.556Z,7.43
2018-12-26T11:12:54.439Z,7.44
2018-12-26T11:15:58.519Z,7.46
2018-12-26T11:19:03.223Z,7.48
2018-12-26T11:22:07.058Z,7.44
2018-12-26T11:25:11.213Z,7.51
2018-12-26T11:28:15.067Z,7.48
2018-12-26T11:31:19.072Z,7.57
2018-12-26T11:34:24.246Z,7.53
2018-12-26T11:37:28.134Z,7.55
2018-12-26T11:40:32.192Z,7.57
2018-12-26T11:43:36.034Z,7.63
2018-12-26T11:46:39.891Z,7.65
2018-12-26T11:49:43.824Z,7.68
2018-12-26T11:52:47.766Z,7.73
2018-12-26T11:55:51.721Z,7.73
2018-12-26T11:58:58.515Z,7.73
2018-12-26T12:02:02.452Z,7.76
2018-12-26T12:05:06.770Z,7.82
2018-12-26T12:08:10.618Z,7.78
2018-12-26T12:11:14.666Z,7.76
2018-12-26T12:14:18.607Z,7.82
2018-12-26T12:17:22.570Z,7.97
2018-12-26T12:20:26.565Z,7.91
2018-12-26T12:23:32.613Z,7.94
2018-12-26T12:26:36.466Z,8.09
2018-12-26T12:29:40.310Z,8.03
2018-12-26T12:32:44.277Z,8.03
2018-12-26T12:35:48.261Z,8.03
2018-12-26T12:38:54.829Z,8.05
2018-12-26T12:41:58.837Z,8.05
2018-12-26T12:45:02.801Z,8.08
2018-12-26T12:48:06.856Z,8.13
2018-12-26T12:51:10.740Z,8.14
2018-12-26T12:54:14.578Z,8.17
2018-12-26T12:57:18.547Z,8.22
2018-12-26T13:00:22.556Z,8.27
2018-12-26T13:03:26.574Z,8.34
2018-12-26T13:06:30.429Z,8.39
2018-12-26T13:09:34.312Z,8.48
2018-12-26T13:12:38.268Z,8.67
2018-12-26T13:15:42.235Z,8.61
2018-12-26T13:18:46.109Z,8.71
2018-12-26T13:21:52.339Z,8.74
2018-12-26T13:24:56.268Z,8.80
2018-12-26T13:28:01.715Z,8.89
2018-12-26T13:31:05.693Z,8.89
2018-12-26T13:34:09.654Z,8.89
2018-12-26T13:37:13.627Z,8.95
2018-12-26T13:40:17.559Z,8.97
2018-12-26T13:43:21.492Z,9.01
2018-12-26T13:46:33.773Z,9.03
2018-12-26T13:49:33.229Z,9.04
2018-12-26T13:52:37.132Z,9.09
2018-12-26T13:55:41.000Z,9.15
2018-12-26T13:58:44.948Z,9.13
2018-12-26T14:01:48.830Z,9.14
2018-12-26T14:04:56.075Z,9.19
2018-12-26T14:07:59.968Z,9.24
2018-12-26T14:11:03.851Z,9.25
2018-12-26T14:14:07.737Z,9.30
2018-12-26T14:17:11.623Z,9.32
2018-12-26T14:20:15.488Z,9.32
2018-12-26T14:23:19.349Z,9.34
2018-12-26T14:26:23.287Z,9.34
2018-12-26T14:29:29.006Z,9.33
2018-12-26T14:32:32.974Z,9.35
2018-12-26T14:35:38.914Z,9.35
2018-12-26T14:38:42.777Z,9.33
2018-12-26T14:41:46.638Z,9.36
2018-12-26T14:44:50.565Z,9.39
2018-12-26T14:47:54.790Z,9.37
2018-12-26T14:50:58.715Z,9.40
2018-12-26T14:54:06.205Z,9.45
2018-12-26T14:57:10.429Z,9.39
2018-12-26T15:00:19.827Z,9.39
2018-12-26T15:03:20.048Z,9.47
2018-12-26T15:06:24.079Z,9.46
2018-12-26T15:09:28.084Z,9.47
2018-12-26T15:12:31.971Z,9.44
2018-12-26T15:15:35.902Z,9.46
2018-12-26T15:18:39.905Z,9.47
2018-12-26T15:21:43.707Z,9.44
2018-12-26T15:24:47.644Z,9.41
2018-12-26T15:27:51.578Z,9.41
2018-12-26T15:30:55.452Z,9.40
2018-12-26T15:33:59.375Z,9.38
2018-12-26T15:37:03.220Z,9.40
2018-12-26T15:40:08.982Z,9.41
2018-12-26T15:43:12.854Z,9.41
2018-12-26T15:46:16.742Z,9.40
2018-12-26T15:49:20.671Z,9.42
2018-12-26T15:52:29.939Z,9.39
2018-12-26T15:55:37.458Z,9.37
2018-12-26T15:58:41.399Z,9.36
2018-12-26T16:01:45.327Z,9.34
2018-12-26T16:04:49.277Z,9.61
2018-12-26T16:07:55.642Z,9.36
2018-12-26T16:10:59.644Z,9.28
2018-12-26T16:14:03.654Z,9.26
2018-12-26T16:17:07.506Z,9.24
2018-12-26T16:20:11.730Z,9.24
2018-12-26T16:23:15.672Z,9.23
2018-12-26T16:26:19.545Z,9.22
2018-12-26T16:29:23.463Z,9.25
2018-12-26T16:32:27.851Z,9.20
2018-12-26T16:35:31.782Z,9.17
2018-12-26T16:38:35.791Z,9.20
2018-12-26T16:41:39.750Z,9.20
2018-12-26T16:44:43.689Z,9.20
2018-12-26T16:47:49.629Z,9.17
2018-12-26T16:50:53.383Z,9.19
2018-12-26T16:53:57.272Z,9.17
2018-12-26T16:57:01.147Z,9.21
2018-12-26T17:00:05.527Z,9.24
2018-12-26T17:03:11.877Z,9.26
2018-12-26T17:06:15.820Z,9.29
2018-12-26T17:09:19.734Z,9.23
2018-12-26T17:12:23.693Z,9.18
2018-12-26T17:15:27.622Z,9.17
2018-12-26T17:18:31.572Z,9.16
2018-12-26T17:21:35.600Z,9.12
2018-12-26T17:24:39.533Z,9.12
2018-12-26T17:27:43.405Z,9.12
2018-12-26T17:30:47.462Z,9.11
2018-12-26T17:33:51.318Z,9.08
2018-12-26T17:36:58.602Z,9.03
2018-12-26T17:40:02.607Z,9.05
2018-12-26T17:43:06.611Z,9.01
2018-12-26T17:46:10.570Z,8.99
2018-12-26T17:49:16.065Z,9.00
2018-12-26T17:52:22.173Z,8.98
2018-12-26T17:55:55.194Z,8.95
2018-12-26T17:59:39.447Z,8.91
2018-12-26T18:02:46.077Z,8.91
2018-12-26T18:05:50.544Z,8.86
2018-12-26T18:08:54.462Z,8.83
2018-12-26T18:12:11.239Z,8.84
2018-12-26T18:15:04.264Z,8.79
2018-12-26T18:18:08.227Z,8.77
2018-12-26T18:21:12.149Z,8.75
2018-12-26T18:24:16.140Z,8.72
2018-12-26T18:27:20.430Z,8.71
2018-12-26T18:30:24.456Z,8.71
2018-12-26T18:33:28.382Z,8.72
2018-12-26T18:36:32.306Z,8.69
2018-12-26T18:39:36.256Z,8.68
2018-12-26T18:42:40.178Z,8.65
2018-12-26T18:45:44.040Z,8.68
2018-12-26T18:48:47.970Z,8.68
2018-12-26T18:51:51.902Z,8.67
2018-12-26T18:54:55.889Z,8.68
2018-12-26T18:57:59.732Z,8.66
2018-12-26T19:01:03.745Z,8.67
2018-12-26T19:04:07.672Z,8.68
2018-12-26T19:07:11.604Z,8.70
2018-12-26T19:10:15.481Z,8.69
2018-12-26T19:13:19.332Z,8.67
2018-12-26T19:16:23.268Z,8.65
2018-12-26T19:19:29.622Z,8.65
2018-12-26T19:22:33.464Z,8.64
2018-12-26T19:25:37.357Z,8.62
2018-12-26T19:28:41.261Z,8.65
2018-12-26T19:31:45.465Z,8.57
2018-12-26T19:34:49.391Z,8.58
2018-12-26T19:37:53.379Z,8.53
2018-12-26T19:40:57.198Z,8.52
2018-12-26T19:44:01.060Z,8.49
2018-12-26T19:47:04.992Z,8.48
2018-12-26T19:50:09.641Z,8.49
2018-12-26T19:53:14.989Z,8.47
2018-12-26T19:56:19.582Z,8.41
2018-12-26T19:59:23.537Z,8.39
2018-12-26T20:02:27.492Z,8.34
2018-12-26T20:05:31.423Z,8.32
2018-12-26T20:08:35.279Z,8.30
2018-12-26T20:11:39.408Z,8.35
2018-12-26T20:14:43.278Z,8.31
2018-12-26T20:17:47.311Z,8.30
2018-12-26T20:20:52.887Z,8.25
2018-12-26T20:23:56.759Z,8.25
2018-12-26T20:27:00.600Z,8.23
2018-12-26T20:30:05.093Z,8.24
2018-12-26T20:33:09.593Z,8.21
2018-12-26T20:36:15.013Z,8.21
2018-12-26T20:39:18.901Z,8.19
2018-12-26T20:42:22.734Z,8.16
2018-12-26T20:45:26.611Z,8.18
2018-12-26T20:48:30.478Z,8.14
2018-12-26T20:51:34.377Z,8.13
2018-12-26T20:54:38.269Z,8.08
2018-12-26T20:57:42.140Z,8.10
2018-12-26T21:00:46.073Z,8.06
2018-12-26T21:03:49.960Z,8.03
2018-12-26T21:06:53.974Z,8.02
2018-12-26T21:09:57.873Z,8.00
2018-12-26T21:13:01.748Z,8.00
2018-12-26T21:16:05.766Z,8.00
2018-12-26T21:19:09.607Z,8.03
2018-12-26T21:22:18.856Z,8.01
2018-12-26T21:25:24.384Z,7.98
2018-12-26T21:28:28.252Z,8.01
2018-12-26T21:31:34.072Z,7.99
2018-12-26T21:34:37.682Z,8.08
2018-12-26T21:37:41.628Z,8.01
2018-12-26T21:40:45.580Z,7.99
2018-12-26T21:43:49.515Z,8.01
2018-12-26T21:46:53.510Z,8.01
2018-12-26T21:49:57.381Z,8.00
2018-12-26T21:53:01.624Z,7.99
2018-12-26T21:56:06.188Z,8.09
2018-12-26T21:59:12.143Z,8.05
2018-12-26T22:02:22.424Z,8.02
2018-12-26T22:05:21.320Z,8.04
2018-12-26T22:08:25.684Z,8.01
2018-12-26T22:11:29.657Z,8.01
2018-12-26T22:14:33.721Z,7.99
2018-12-26T22:17:37.737Z,8.01
2018-12-26T22:20:41.593Z,7.98
2018-12-26T22:23:45.686Z,7.98
2018-12-26T22:26:49.535Z,8.07
2018-12-26T22:29:53.377Z,7.98
2018-12-26T22:32:57.261Z,7.96
2018-12-26T22:36:01.495Z,7.94
2018-12-26T22:39:07.311Z,7.94
2018-12-26T22:42:11.339Z,7.91
2018-12-26T22:45:15.391Z,7.87
2018-12-26T22:48:19.251Z,7.86
2018-12-26T22:51:23.112Z,7.86
2018-12-26T22:54:27.115Z,7.84
2018-12-26T22:57:31.066Z,7.84
2018-12-26T23:00:41.026Z,7.82
2018-12-26T23:03:46.000Z,7.85
2018-12-26T23:06:51.915Z,7.89
2018-12-26T23:09:55.756Z,7.83
2018-12-26T23:12:59.622Z,7.85
2018-12-26T23:16:03.459Z,7.83
2018-12-26T23:19:09.834Z,7.82
2018-12-26T23:22:13.682Z,7.86
2018-12-26T23:25:17.624Z,7.82
2018-12-26T23:28:23.540Z,7.87
2018-12-26T23:31:27.419Z,7.81
2018-12-26T23:34:31.258Z,7.94
2018-12-26T23:37:35.122Z,7.83
2018-12-26T23:40:39.230Z,7.81
2018-12-26T23:43:43.203Z,7.89
2018-12-26T23:46:47.047Z,7.85
2018-12-26T23:49:50.936Z,7.85
2018-12-26T23:52:54.782Z,7.81
2018-12-26T23:55:58.653Z,7.81
2018-12-26T23:59:03.108Z,7.83
